Time;durP1;ratioP1;P1;durP2;ratioP2;P2;SDS_P1;SDS_P2;PMS_P1;PMS_P2;Temp;Humidity;BMP_temperature;BMP_pressure;BME280_temperature;BME280_humidity;BME280_pressure;Samples;Min_cycle;Max_cycle;Signal;HPM_P1;HPM_P2
2023/06/28 00:00:52;;;;;;;;;;;14.90;99.90;;;;;;5136910;27;20362;-42
2023/06/28 00:03:17;;;;;;;;;;;15.00;99.90;;;;;;5136171;27;19922;-41
2023/06/28 00:05:43;;;;;;;;;;;15.00;99.90;;;;;;5136767;27;20006;-43
2023/06/28 00:08:08;;;;;;;;;;;15.00;99.90;;;;;;5135681;27;19912;-41
2023/06/28 00:10:33;;;;;;;;;;;15.00;99.90;;;;;;5136607;27;19938;-41
2023/06/28 00:12:59;;;;;;;;;;;15.00;99.90;;;;;;5136920;27;19907;-41
2023/06/28 00:15:24;;;;;;;;;;;15.00;99.90;;;;;;5135489;27;19924;-41
2023/06/28 00:17:50;;;;;;;;;;;15.10;99.90;;;;;;5136802;27;19929;-43
2023/06/28 00:20:15;;;;;;;;;;;15.00;99.90;;;;;;5136677;27;19908;-45
2023/06/28 00:22:41;;;;;;;;;;;14.90;99.90;;;;;;5135756;27;19937;-43
2023/06/28 00:25:07;;;;;;;;;;;14.90;99.90;;;;;;5136633;27;19911;-41
2023/06/28 00:27:32;;;;;;;;;;;15.00;99.90;;;;;;5136141;27;20374;-44
2023/06/28 00:29:58;;;;;;;;;;;15.10;99.90;;;;;;5134695;27;19908;-42
2023/06/28 00:32:24;;;;;;;;;;;15.10;99.90;;;;;;5136312;27;19908;-42
2023/06/28 00:34:50;;;;;;;;;;;15.10;99.90;;;;;;5136424;27;19920;-42
2023/06/28 00:37:15;;;;;;;;;;;15.10;99.90;;;;;;5134729;27;20317;-41
2023/06/28 00:39:41;;;;;;;;;;;15.10;99.90;;;;;;5126552;27;20420;-42
2023/06/28 00:42:07;;;;;;;;;;;15.10;99.90;;;;;;5115895;28;19908;-40
2023/06/28 00:44:33;;;;;;;;;;;15.00;99.90;;;;;;5122891;27;19912;-43
2023/06/28 00:47:00;;;;;;;;;;;15.00;99.90;;;;;;5115525;28;19914;-41
2023/06/28 00:49:27;;;;;;;;;;;15.00;99.90;;;;;;5115537;28;20345;-42
2023/06/28 00:51:53;;;;;;;;;;;14.90;99.90;;;;;;5114729;28;20366;-41
2023/06/28 00:54:18;;;;;;;;;;;14.90;99.90;;;;;;5125688;27;20018;-43
2023/06/28 00:56:45;;;;;;;;;;;14.90;99.90;;;;;;5136287;27;19931;-42
2023/06/28 00:59:11;;;;;;;;;;;14.90;99.90;;;;;;5135242;27;19912;-44
2023/06/28 01:01:37;;;;;;;;;;;14.90;99.90;;;;;;5135912;27;19907;-42
2023/06/28 01:04:05;;;;;;;;;;;14.80;99.90;;;;;;5135941;27;20357;-41
2023/06/28 01:06:35;;;;;;;;;;;14.80;99.90;;;;;;5134973;27;19915;-41
2023/06/28 01:09:01;;;;;;;;;;;14.70;99.90;;;;;;5135639;27;19914;-42
2023/06/28 01:11:27;;;;;;;;;;;14.60;99.90;;;;;;5135102;27;19907;-42
2023/06/28 01:13:52;;;;;;;;;;;14.60;99.90;;;;;;5135665;27;19907;-46
2023/06/28 01:16:18;;;;;;;;;;;14.50;99.90;;;;;;5135195;27;19915;-42
2023/06/28 01:18:43;;;;;;;;;;;14.50;99.90;;;;;;5134675;27;19907;-43
2023/06/28 01:21:09;;;;;;;;;;;14.50;99.90;;;;;;5135510;27;19914;-43
2023/06/28 01:23:35;;;;;;;;;;;14.50;99.90;;;;;;5135311;27;20281;-43
2023/06/28 01:26:02;;;;;;;;;;;14.50;99.90;;;;;;5134859;27;19907;-43
2023/06/28 01:28:29;;;;;;;;;;;14.40;99.90;;;;;;5135409;27;19911;-42
2023/06/28 01:30:55;;;;;;;;;;;14.40;99.90;;;;;;5135318;27;19946;-43
2023/06/28 01:33:20;;;;;;;;;;;14.40;99.90;;;;;;5134495;27;19962;-41
2023/06/28 01:35:46;;;;;;;;;;;14.40;99.90;;;;;;5135411;27;19915;-43
2023/06/28 01:38:12;;;;;;;;;;;14.40;99.90;;;;;;5134888;27;20416;-42
2023/06/28 01:40:38;;;;;;;;;;;14.40;99.90;;;;;;5115979;27;19953;-42
2023/06/28 01:43:06;;;;;;;;;;;14.30;99.90;;;;;;5114600;28;19914;-43
2023/06/28 01:45:34;;;;;;;;;;;14.30;99.90;;;;;;5114468;28;19911;-43
2023/06/28 01:48:00;;;;;;;;;;;14.30;99.90;;;;;;5113743;28;19915;-43
2023/06/28 01:50:26;;;;;;;;;;;14.20;99.90;;;;;;5114360;28;19908;-41
2023/06/28 01:52:51;;;;;;;;;;;14.20;99.90;;;;;;5114382;28;19911;-41
2023/06/28 01:55:17;;;;;;;;;;;14.20;99.90;;;;;;5113268;28;20438;-43
2023/06/28 01:57:43;;;;;;;;;;;14.20;99.90;;;;;;5114230;28;19919;-42
2023/06/28 02:00:10;;;;;;;;;;;14.20;99.90;;;;;;5114277;28;19934;-43
2023/06/28 02:02:36;;;;;;;;;;;14.20;99.90;;;;;;5113341;28;19953;-44
2023/06/28 02:05:01;;;;;;;;;;;14.20;99.90;;;;;;5114105;28;19911;-43
2023/06/28 02:07:27;;;;;;;;;;;14.20;99.90;;;;;;5114089;28;19908;-42
2023/06/28 02:09:52;;;;;;;;;;;14.20;99.90;;;;;;5120475;27;19914;-43
2023/06/28 02:12:18;;;;;;;;;;;14.20;99.90;;;;;;5134191;27;20429;-43
2023/06/28 02:14:43;;;;;;;;;;;14.20;99.90;;;;;;5133496;27;19968;-43
2023/06/28 02:17:13;;;;;;;;;;;14.20;99.90;;;;;;5134452;27;19907;-41
2023/06/28 02:19:39;;;;;;;;;;;14.20;99.90;;;;;;5134212;27;19908;-45
2023/06/28 02:22:05;;;;;;;;;;;14.20;99.90;;;;;;5133641;27;19911;-42
2023/06/28 02:24:30;;;;;;;;;;;14.20;99.90;;;;;;5134279;27;20013;-41
2023/06/28 02:26:56;;;;;;;;;;;14.20;99.90;;;;;;5134307;27;19915;-41
2023/06/28 02:29:21;;;;;;;;;;;14.20;99.90;;;;;;5133548;27;20274;-42
2023/06/28 02:31:47;;;;;;;;;;;14.20;99.90;;;;;;5134316;27;19915;-42
2023/06/28 02:34:12;;;;;;;;;;;14.20;99.90;;;;;;5133838;27;19918;-45
2023/06/28 02:36:38;;;;;;;;;;;14.20;99.90;;;;;;5133206;27;20401;-41
2023/06/28 02:39:03;;;;;;;;;;;14.20;99.90;;;;;;5133813;27;19942;-42
2023/06/28 02:41:29;;;;;;;;;;;14.20;99.90;;;;;;5134053;27;19998;-41
2023/06/28 02:43:54;;;;;;;;;;;14.30;99.90;;;;;;5133249;27;19994;-44
2023/06/28 02:46:20;;;;;;;;;;;14.30;99.90;;;;;;5133938;27;19908;-42
2023/06/28 02:48:45;;;;;;;;;;;14.30;99.90;;;;;;5133842;27;19947;-43
2023/06/28 02:51:11;;;;;;;;;;;14.40;99.90;;;;;;5132294;27;20273;-41
2023/06/28 02:53:36;;;;;;;;;;;14.40;99.90;;;;;;5133737;27;19908;-42
2023/06/28 02:56:02;;;;;;;;;;;14.40;99.90;;;;;;5133890;27;20002;-42
2023/06/28 02:58:27;;;;;;;;;;;14.50;99.90;;;;;;5132941;27;19912;-43
2023/06/28 03:00:53;;;;;;;;;;;14.50;99.90;;;;;;5133944;27;19914;-43
2023/06/28 03:03:19;;;;;;;;;;;14.50;99.90;;;;;;5133715;27;19907;-42
2023/06/28 03:05:46;;;;;;;;;;;14.50;99.90;;;;;;5132962;28;19946;-41
2023/06/28 03:08:12;;;;;;;;;;;14.60;99.90;;;;;;5133729;28;19914;-43
2023/06/28 03:10:37;;;;;;;;;;;14.50;99.90;;;;;;5133653;28;19911;-43
2023/06/28 03:13:03;;;;;;;;;;;14.60;99.90;;;;;;5133061;28;19951;-43
2023/06/28 03:15:28;;;;;;;;;;;14.60;99.90;;;;;;5133381;28;19926;-46
2023/06/28 03:17:54;;;;;;;;;;;14.60;99.90;;;;;;5132812;28;19915;-42
2023/06/28 03:20:20;;;;;;;;;;;14.60;99.90;;;;;;5133204;28;19919;-42
2023/06/28 03:22:45;;;;;;;;;;;14.60;99.90;;;;;;5133430;28;19907;-41
2023/06/28 03:25:11;;;;;;;;;;;14.60;99.90;;;;;;5132530;28;19922;-43
2023/06/28 03:27:36;;;;;;;;;;;14.60;99.90;;;;;;5133521;28;19956;-45
2023/06/28 03:30:02;;;;;;;;;;;14.60;99.90;;;;;;5133061;28;19912;-41
2023/06/28 03:32:27;;;;;;;;;;;14.70;99.90;;;;;;5132469;28;19923;-43
2023/06/28 03:34:53;;;;;;;;;;;14.70;99.90;;;;;;5132978;28;20278;-42
2023/06/28 03:37:18;;;;;;;;;;;14.70;99.90;;;;;;5133507;28;19957;-44
2023/06/28 03:39:44;;;;;;;;;;;14.70;99.90;;;;;;5131924;28;20391;-42
2023/06/28 03:42:09;;;;;;;;;;;14.70;99.90;;;;;;5133302;28;20424;-42
2023/06/28 03:44:35;;;;;;;;;;;14.60;99.90;;;;;;5133297;28;19961;-43
2023/06/28 03:47:00;;;;;;;;;;;14.60;99.90;;;;;;5132535;28;19951;-41
2023/06/28 03:49:26;;;;;;;;;;;14.60;99.90;;;;;;5133154;28;20316;-42
2023/06/28 03:51:53;;;;;;;;;;;14.60;99.90;;;;;;5132226;28;20240;-41
2023/06/28 03:54:19;;;;;;;;;;;14.60;99.90;;;;;;5132308;28;20342;-43
2023/06/28 03:56:44;;;;;;;;;;;14.50;99.90;;;;;;5133170;28;19945;-44
2023/06/28 03:59:10;;;;;;;;;;;14.50;99.90;;;;;;5133174;28;20285;-41
2023/06/28 04:01:35;;;;;;;;;;;14.50;99.90;;;;;;5132150;28;20002;-42
2023/06/28 04:04:00;;;;;;;;;;;14.40;99.90;;;;;;5135971;27;19933;-44
2023/06/28 04:06:26;;;;;;;;;;;14.40;99.90;;;;;;5136797;27;19911;-41
2023/06/28 04:08:52;;;;;;;;;;;14.40;99.90;;;;;;5136153;27;20354;-42
2023/06/28 04:11:17;;;;;;;;;;;14.50;99.90;;;;;;5136987;27;19908;-43
2023/06/28 04:13:42;;;;;;;;;;;14.50;99.90;;;;;;5136925;27;19908;-43
2023/06/28 04:16:08;;;;;;;;;;;14.50;99.90;;;;;;5136025;27;19926;-41
2023/06/28 04:18:33;;;;;;;;;;;14.60;99.90;;;;;;5136752;27;20317;-41
2023/06/28 04:20:59;;;;;;;;;;;14.60;99.90;;;;;;5136672;27;19998;-44
2023/06/28 04:23:24;;;;;;;;;;;14.70;99.90;;;;;;5135897;27;19914;-46
2023/06/28 04:25:52;;;;;;;;;;;14.70;99.90;;;;;;5136500;27;19990;-43
2023/06/28 04:28:17;;;;;;;;;;;14.80;99.90;;;;;;5136140;27;19907;-43
2023/06/28 04:30:43;;;;;;;;;;;14.90;99.90;;;;;;5136521;27;20282;-43
2023/06/28 04:33:09;;;;;;;;;;;14.90;99.90;;;;;;5136367;27;19917;-40
2023/06/28 04:35:35;;;;;;;;;;;15.00;99.90;;;;;;5135438;27;19926;-41
2023/06/28 04:38:04;;;;;;;;;;;15.00;99.90;;;;;;5136174;27;19907;-42
2023/06/28 04:40:31;;;;;;;;;;;15.10;99.90;;;;;;5136087;27;19918;-42
2023/06/28 04:42:57;;;;;;;;;;;15.10;99.90;;;;;;5135291;27;19965;-43
2023/06/28 04:45:25;;;;;;;;;;;15.10;99.90;;;;;;5136010;27;19911;-45
2023/06/28 04:47:52;;;;;;;;;;;15.10;99.90;;;;;;5136146;27;19929;-43
2023/06/28 04:50:17;;;;;;;;;;;15.10;99.90;;;;;;5135359;27;19949;-43
2023/06/28 04:52:43;;;;;;;;;;;15.10;99.90;;;;;;5136129;27;19911;-43
2023/06/28 04:55:08;;;;;;;;;;;15.10;99.90;;;;;;5136215;27;19926;-42
2023/06/28 04:57:34;;;;;;;;;;;15.00;99.90;;;;;;5135147;27;19915;-41
2023/06/28 04:59:59;;;;;;;;;;;15.10;99.90;;;;;;5117617;27;19932;-42
2023/06/28 05:02:25;;;;;;;;;;;15.00;99.90;;;;;;5135730;27;19912;-41
2023/06/28 05:04:51;;;;;;;;;;;15.10;99.90;;;;;;5135062;27;20010;-43
2023/06/28 05:07:17;;;;;;;;;;;15.10;99.90;;;;;;5135778;27;20284;-44
2023/06/28 05:09:42;;;;;;;;;;;15.10;99.90;;;;;;5135807;27;19915;-45
2023/06/28 05:12:08;;;;;;;;;;;15.20;99.90;;;;;;5135039;27;20319;-42
2023/06/28 05:14:33;;;;;;;;;;;15.20;99.90;;;;;;5135001;27;19912;-42
2023/06/28 05:16:59;;;;;;;;;;;15.30;99.90;;;;;;5135644;27;19907;-42
2023/06/28 05:19:25;;;;;;;;;;;15.30;99.90;;;;;;5134948;27;19907;-43
2023/06/28 05:21:50;;;;;;;;;;;15.40;99.90;;;;;;5135538;27;19914;-46
2023/06/28 05:24:16;;;;;;;;;;;15.40;99.90;;;;;;5135734;27;19960;-42
2023/06/28 05:26:42;;;;;;;;;;;15.40;99.90;;;;;;5134686;27;19912;-41
2023/06/28 05:29:07;;;;;;;;;;;15.40;99.90;;;;;;5135455;27;19908;-42
2023/06/28 05:31:34;;;;;;;;;;;15.50;99.90;;;;;;5134609;27;20353;-43
2023/06/28 05:34:00;;;;;;;;;;;15.50;99.90;;;;;;5135402;27;19960;-43
2023/06/28 05:36:26;;;;;;;;;;;15.50;99.90;;;;;;5135215;27;19919;-41
2023/06/28 05:38:52;;;;;;;;;;;15.70;99.90;;;;;;5134145;27;20355;-42
2023/06/28 05:41:18;;;;;;;;;;;15.70;99.90;;;;;;5135077;27;20354;-42
2023/06/28 05:43:44;;;;;;;;;;;15.80;99.90;;;;;;5135077;27;19908;-43
2023/06/28 05:46:09;;;;;;;;;;;15.80;99.90;;;;;;5134313;27;19911;-43
2023/06/28 05:48:35;;;;;;;;;;;15.90;99.90;;;;;;5135112;27;20036;-43
2023/06/28 05:51:01;;;;;;;;;;;15.90;99.90;;;;;;5134494;27;19993;-41
2023/06/28 05:53:26;;;;;;;;;;;15.90;99.90;;;;;;5134104;27;19907;-44
2023/06/28 05:55:52;;;;;;;;;;;16.00;99.90;;;;;;5134197;27;20427;-43
2023/06/28 05:58:18;;;;;;;;;;;16.00;99.90;;;;;;5134607;27;19907;-42
2023/06/28 06:00:43;;;;;;;;;;;16.10;99.90;;;;;;5124595;27;19964;-43
2023/06/28 06:03:09;;;;;;;;;;;16.10;99.90;;;;;;5128968;27;19912;-43
2023/06/28 06:05:34;;;;;;;;;;;16.10;99.90;;;;;;5133787;27;19984;-45
2023/06/28 06:08:00;;;;;;;;;;;16.20;99.90;;;;;;5133491;27;19919;-41
2023/06/28 06:10:26;;;;;;;;;;;16.30;99.90;;;;;;5120990;27;19915;-41
2023/06/28 06:12:53;;;;;;;;;;;16.20;99.90;;;;;;5133714;27;19919;-43
2023/06/28 06:15:18;;;;;;;;;;;16.30;99.90;;;;;;5118919;27;19923;-44
2023/06/28 06:17:44;;;;;;;;;;;16.30;99.90;;;;;;5131586;27;20014;-41
2023/06/28 06:20:10;;;;;;;;;;;16.30;99.90;;;;;;5133252;27;20385;-43
2023/06/28 06:22:35;;;;;;;;;;;16.30;99.90;;;;;;5125112;27;19912;-43
2023/06/28 06:25:01;;;;;;;;;;;16.40;99.90;;;;;;5131542;27;19911;-42
2023/06/28 06:27:26;;;;;;;;;;;16.40;99.90;;;;;;5120999;27;19920;-42
2023/06/28 06:29:52;;;;;;;;;;;16.50;99.90;;;;;;5133156;27;19912;-43
2023/06/28 06:32:17;;;;;;;;;;;16.40;99.90;;;;;;5128775;27;20318;-43
2023/06/28 06:34:44;;;;;;;;;;;16.50;99.90;;;;;;5131713;27;19919;-42
2023/06/28 06:37:12;;;;;;;;;;;16.50;99.90;;;;;;5131728;27;19968;-43
2023/06/28 06:39:38;;;;;;;;;;;16.50;99.90;;;;;;5132460;27;20009;-43
2023/06/28 06:42:03;;;;;;;;;;;16.50;99.90;;;;;;5124439;27;19912;-43
2023/06/28 06:44:29;;;;;;;;;;;16.50;99.90;;;;;;5125667;27;20366;-41
2023/06/28 06:46:54;;;;;;;;;;;16.50;99.90;;;;;;5126413;27;19919;-41
2023/06/28 06:49:20;;;;;;;;;;;16.50;99.90;;;;;;5132270;27;19964;-42
2023/06/28 06:51:46;;;;;;;;;;;16.40;99.90;;;;;;5132747;27;19923;-44
2023/06/28 06:54:11;;;;;;;;;;;16.50;99.90;;;;;;5133551;27;19908;-44
2023/06/28 06:56:37;;;;;;;;;;;16.40;99.90;;;;;;5127515;27;20335;-43
2023/06/28 06:59:02;;;;;;;;;;;16.40;99.90;;;;;;5132581;27;19911;-42
2023/06/28 07:01:29;;;;;;;;;;;16.50;99.90;;;;;;5130849;27;19911;-41
2023/06/28 07:03:55;;;;;;;;;;;16.50;99.90;;;;;;5132286;27;20361;-43
2023/06/28 07:06:20;;;;;;;;;;;16.50;99.90;;;;;;5124352;27;19994;-44
2023/06/28 07:08:46;;;;;;;;;;;16.50;99.90;;;;;;5113131;28;19912;-42
2023/06/28 07:11:12;;;;;;;;;;;16.50;99.90;;;;;;5112201;28;19907;-43
2023/06/28 07:13:38;;;;;;;;;;;16.60;99.90;;;;;;5126060;28;19912;-42
2023/06/28 07:16:03;;;;;;;;;;;16.50;99.90;;;;;;5133561;28;19922;-42
2023/06/28 07:18:29;;;;;;;;;;;16.50;99.90;;;;;;5117234;28;19908;-43
2023/06/28 07:20:54;;;;;;;;;;;16.40;99.90;;;;;;5131302;28;19919;-44
2023/06/28 07:23:20;;;;;;;;;;;16.40;99.90;;;;;;5132945;28;19911;-43
2023/06/28 07:25:46;;;;;;;;;;;16.40;99.90;;;;;;5126129;28;19954;-42
2023/06/28 07:28:11;;;;;;;;;;;16.30;99.90;;;;;;5119034;28;20366;-43
2023/06/28 07:30:57;;;;;;;;;;;16.30;99.90;;;;;;5119613;28;19980;-43
2023/06/28 07:33:23;;;;;;;;;;;16.30;99.90;;;;;;5117287;28;19916;-41
2023/06/28 07:35:49;;;;;;;;;;;16.20;99.90;;;;;;5118782;28;20028;-41
2023/06/28 07:38:16;;;;;;;;;;;16.30;99.90;;;;;;5117323;27;19976;-43
2023/06/28 07:40:42;;;;;;;;;;;16.30;99.90;;;;;;5126604;27;19919;-43
2023/06/28 07:43:07;;;;;;;;;;;16.40;99.90;;;;;;5134777;27;19912;-42
2023/06/28 07:45:33;;;;;;;;;;;16.30;99.90;;;;;;5135407;27;20381;-45
2023/06/28 07:47:59;;;;;;;;;;;16.40;99.90;;;;;;5131328;27;19960;-41
2023/06/28 07:50:25;;;;;;;;;;;16.50;99.90;;;;;;5137116;27;19995;-42
2023/06/28 07:52:50;;;;;;;;;;;16.50;99.90;;;;;;5135350;27;19912;-44
2023/06/28 07:55:16;;;;;;;;;;;16.50;99.90;;;;;;5136525;27;19930;-42
2023/06/28 07:57:41;;;;;;;;;;;16.40;99.90;;;;;;5136751;27;20716;-41
2023/06/28 08:00:08;;;;;;;;;;;16.40;99.90;;;;;;5135883;27;19912;-43
2023/06/28 08:02:33;;;;;;;;;;;16.40;99.90;;;;;;5136616;27;19914;-42
2023/06/28 08:04:58;;;;;;;;;;;16.50;99.90;;;;;;5136476;27;20265;-41
2023/06/28 08:07:24;;;;;;;;;;;16.70;99.90;;;;;;5136113;27;19949;-43
2023/06/28 08:09:50;;;;;;;;;;;16.80;99.90;;;;;;5136009;27;19916;-41
2023/06/28 08:12:15;;;;;;;;;;;16.80;99.90;;;;;;5136060;27;20365;-44
2023/06/28 08:14:41;;;;;;;;;;;16.90;99.90;;;;;;5135016;27;19959;-41
2023/06/28 08:17:06;;;;;;;;;;;16.90;99.90;;;;;;5136513;27;19907;-45
2023/06/28 08:19:32;;;;;;;;;;;16.90;99.90;;;;;;5135875;27;19907;-41
2023/06/28 08:21:58;;;;;;;;;;;16.90;99.90;;;;;;5135755;27;19911;-42
2023/06/28 08:24:23;;;;;;;;;;;16.90;99.90;;;;;;5132639;27;20282;-43
2023/06/28 08:26:49;;;;;;;;;;;16.80;99.90;;;;;;5125180;27;20029;-43
2023/06/28 08:29:16;;;;;;;;;;;16.80;99.90;;;;;;5128314;27;19915;-43
2023/06/28 08:31:42;;;;;;;;;;;16.90;99.90;;;;;;5115581;28;19969;-41
2023/06/28 08:34:07;;;;;;;;;;;16.90;99.90;;;;;;5115881;27;19908;-43
2023/06/28 08:36:33;;;;;;;;;;;17.00;99.90;;;;;;5115844;27;19923;-46
2023/06/28 08:38:59;;;;;;;;;;;16.90;99.90;;;;;;5113857;27;19924;-42
2023/06/28 08:41:24;;;;;;;;;;;16.90;99.90;;;;;;5114641;28;19950;-42
2023/06/28 08:43:53;;;;;;;;;;;16.90;99.90;;;;;;5115403;28;19912;-42
2023/06/28 08:46:18;;;;;;;;;;;16.90;99.90;;;;;;5115737;28;20116;-42
2023/06/28 08:48:46;;;;;;;;;;;16.90;99.90;;;;;;5111584;27;20517;-43
2023/06/28 08:51:12;;;;;;;;;;;17.00;99.90;;;;;;5114637;28;20255;-42
2023/06/28 08:53:43;;;;;;;;;;;17.10;99.90;;;;;;5115426;28;20003;-42
2023/06/28 08:56:09;;;;;;;;;;;17.10;99.90;;;;;;5114356;27;20446;-43
2023/06/28 08:58:35;;;;;;;;;;;17.10;99.90;;;;;;5115457;27;19920;-42
2023/06/28 09:01:01;;;;;;;;;;;17.20;99.90;;;;;;5134681;27;20359;-41
2023/06/28 09:03:27;;;;;;;;;;;17.30;99.90;;;;;;5134845;27;19921;-43
2023/06/28 09:05:53;;;;;;;;;;;17.40;99.90;;;;;;5131084;27;19958;-43
2023/06/28 09:08:19;;;;;;;;;;;17.40;99.90;;;;;;5115370;27;19931;-42
2023/06/28 09:10:45;;;;;;;;;;;17.40;99.90;;;;;;5130331;27;19911;-42
2023/06/28 09:13:11;;;;;;;;;;;17.50;99.90;;;;;;5135685;27;19907;-42
2023/06/28 09:15:36;;;;;;;;;;;17.40;99.90;;;;;;5125928;27;19927;-45
2023/06/28 09:18:02;;;;;;;;;;;17.50;99.90;;;;;;5134508;27;19997;-43
2023/06/28 09:20:27;;;;;;;;;;;17.50;99.90;;;;;;5134214;27;19912;-42
2023/06/28 09:22:53;;;;;;;;;;;17.60;99.90;;;;;;5135408;27;19914;-42
2023/06/28 09:25:19;;;;;;;;;;;17.70;99.90;;;;;;5130618;27;19920;-46
2023/06/28 09:27:44;;;;;;;;;;;17.70;99.90;;;;;;5121312;27;19923;-42
2023/06/28 09:30:15;;;;;;;;;;;17.70;99.90;;;;;;5124825;27;19919;-43
2023/06/28 09:32:41;;;;;;;;;;;17.70;99.90;;;;;;5114958;28;19908;-44
2023/06/28 09:35:10;;;;;;;;;;;17.70;99.90;;;;;;5121873;27;19919;-42
2023/06/28 09:37:37;;;;;;;;;;;17.70;99.90;;;;;;5121803;27;19934;-43
2023/06/28 09:40:05;;;;;;;;;;;17.70;99.90;;;;;;5115494;27;19926;-43
2023/06/28 09:42:31;;;;;;;;;;;17.80;99.90;;;;;;5126843;27;20266;-42
2023/06/28 09:44:57;;;;;;;;;;;17.80;99.90;;;;;;5121488;27;20002;-43
2023/06/28 09:47:30;;;;;;;;;;;17.90;99.90;;;;;;5133966;27;19911;-43
2023/06/28 09:49:56;;;;;;;;;;;17.90;99.90;;;;;;5133688;27;19911;-42
2023/06/28 09:52:21;;;;;;;;;;;17.90;99.90;;;;;;5133625;27;20381;-43
2023/06/28 09:54:49;;;;;;;;;;;18.00;99.90;;;;;;5134486;27;19919;-42
2023/06/28 09:57:16;;;;;;;;;;;17.90;99.90;;;;;;5134587;27;20384;-44
2023/06/28 09:59:41;;;;;;;;;;;17.80;99.90;;;;;;5133572;27;19954;-44
2023/06/28 10:02:07;;;;;;;;;;;17.80;99.90;;;;;;5134393;27;19957;-44
2023/06/28 10:04:34;;;;;;;;;;;17.80;99.90;;;;;;5134560;27;19919;-44
2023/06/28 10:07:00;;;;;;;;;;;17.70;99.90;;;;;;5131422;27;19916;-46
2023/06/28 10:09:39;;;;;;;;;;;17.70;99.90;;;;;;5117848;27;19963;-41
2023/06/28 10:12:07;;;;;;;;;;;17.60;99.90;;;;;;5126420;27;19918;-44
2023/06/28 10:14:36;;;;;;;;;;;17.60;99.90;;;;;;5114460;27;19920;-43
2023/06/28 10:17:01;;;;;;;;;;;17.70;99.90;;;;;;5117484;27;19911;-43
2023/06/28 10:19:28;;;;;;;;;;;17.70;99.90;;;;;;5122754;27;20319;-43
2023/06/28 10:21:55;;;;;;;;;;;17.70;99.90;;;;;;5115469;27;20014;-43
2023/06/28 10:24:21;;;;;;;;;;;17.70;99.90;;;;;;5134966;27;20442;-42
2023/06/28 10:26:47;;;;;;;;;;;17.80;99.90;;;;;;5134705;27;19907;-42
2023/06/28 10:29:13;;;;;;;;;;;17.90;99.90;;;;;;5134242;27;19952;-43
2023/06/28 10:31:38;;;;;;;;;;;17.90;99.90;;;;;;5130747;27;19919;-43
2023/06/28 10:34:04;;;;;;;;;;;17.90;99.90;;;;;;5127976;27;19923;-45
2023/06/28 10:36:30;;;;;;;;;;;17.90;99.90;;;;;;5122931;27;19924;-43
2023/06/28 10:38:55;;;;;;;;;;;17.90;99.90;;;;;;5132285;27;19976;-42
2023/06/28 10:41:21;;;;;;;;;;;18.00;99.90;;;;;;5133408;27;20413;-41
2023/06/28 10:43:47;;;;;;;;;;;18.00;99.90;;;;;;5133934;27;19915;-43
2023/06/28 10:46:25;;;;;;;;;;;18.00;99.90;;;;;;5132001;27;19915;-43
2023/06/28 10:48:57;;;;;;;;;;;18.00;99.90;;;;;;5133314;27;19998;-43
2023/06/28 10:51:26;;;;;;;;;;;18.00;99.90;;;;;;5133046;27;19911;-44
2023/06/28 10:53:53;;;;;;;;;;;18.00;99.90;;;;;;5128319;27;19918;-42
2023/06/28 10:56:19;;;;;;;;;;;18.00;99.90;;;;;;5114182;27;19926;-42
2023/06/28 10:58:47;;;;;;;;;;;18.00;99.90;;;;;;5119414;27;20434;-44
2023/06/28 11:01:30;;;;;;;;;;;18.00;99.90;;;;;;5123150;27;19919;-43
2023/06/28 11:04:10;;;;;;;;;;;18.10;99.90;;;;;;5133838;27;19919;-44
2023/06/28 11:06:37;;;;;;;;;;;18.10;99.90;;;;;;5134251;27;19915;-44
2023/06/28 11:09:14;;;;;;;;;;;18.10;99.90;;;;;;5122556;28;19955;-48
2023/06/28 11:11:43;;;;;;;;;;;18.10;99.90;;;;;;5123818;28;19912;-42
2023/06/28 11:14:28;;;;;;;;;;;18.10;99.90;;;;;;5113299;28;19908;-43
2023/06/28 11:17:01;;;;;;;;;;;18.20;99.90;;;;;;5113358;28;20010;-43
2023/06/28 11:19:27;;;;;;;;;;;18.20;99.90;;;;;;5133155;28;19922;-45
2023/06/28 11:21:59;;;;;;;;;;;18.30;99.90;;;;;;5134062;28;19911;-47
2023/06/28 11:24:45;;;;;;;;;;;18.30;99.90;;;;;;5133747;28;19908;-44
2023/06/28 11:27:15;;;;;;;;;;;18.30;99.90;;;;;;5134328;28;19915;-43
2023/06/28 11:29:57;;;;;;;;;;;18.30;99.90;;;;;;5133509;28;20014;-46
2023/06/28 11:32:27;;;;;;;;;;;18.20;99.90;;;;;;5133657;28;19985;-42
2023/06/28 11:34:58;;;;;;;;;;;18.30;99.90;;;;;;5134180;28;19919;-43
2023/06/28 11:37:24;;;;;;;;;;;18.20;99.90;;;;;;5133899;28;19918;-44
2023/06/28 11:39:50;;;;;;;;;;;18.20;99.90;;;;;;5133124;28;20262;-41
2023/06/28 11:42:16;;;;;;;;;;;18.20;99.90;;;;;;5133715;28;19946;-42
2023/06/28 11:44:49;;;;;;;;;;;18.20;99.90;;;;;;5133549;28;19947;-43
2023/06/28 11:47:22;;;;;;;;;;;18.20;99.90;;;;;;5113514;28;19963;-42
2023/06/28 11:49:47;;;;;;;;;;;18.30;99.90;;;;;;5111066;28;19912;-43
2023/06/28 11:52:16;;;;;;;;;;;18.40;99.90;;;;;;5112265;28;19914;-44
2023/06/28 11:54:42;;;;;;;;;;;18.30;99.90;;;;;;5118935;27;19935;-43
2023/06/28 11:57:08;;;;;;;;;;;18.40;99.90;;;;;;5107184;28;20304;-44
2023/06/28 11:59:34;;;;;;;;;;;18.40;99.90;;;;;;5128171;27;20399;-41
2023/06/28 12:02:04;;;;;;;;;;;18.40;99.90;;;;;;5115802;28;20446;-41
2023/06/28 12:04:30;;;;;;;;;;;18.40;99.90;;;;;;5127674;27;19919;-46
2023/06/28 12:06:57;;;;;;;;;;;18.50;99.90;;;;;;5124805;28;19934;-41
2023/06/28 12:09:24;;;;;;;;;;;18.60;99.90;;;;;;5131420;27;19915;-42
2023/06/28 12:11:50;;;;;;;;;;;18.70;99.90;;;;;;5131852;28;19915;-46
2023/06/28 12:14:15;;;;;;;;;;;18.90;99.90;;;;;;5131070;27;20335;-41
2023/06/28 12:16:42;;;;;;;;;;;19.10;99.90;;;;;;5132059;28;19931;-42
2023/06/28 12:19:08;;;;;;;;;;;19.20;99.90;;;;;;5132491;27;19964;-43
2023/06/28 12:21:34;;;;;;;;;;;19.30;99.90;;;;;;5132133;28;19912;-42
2023/06/28 12:24:12;;;;;;;;;;;19.30;99.90;;;;;;5133996;27;19939;-43
2023/06/28 12:26:38;;;;;;;;;;;19.30;99.90;;;;;;5135647;27;20362;-41
2023/06/28 12:29:06;;;;;;;;;;;19.20;99.90;;;;;;5136329;27;19911;-42
2023/06/28 12:31:46;;;;;;;;;;;19.20;99.90;;;;;;5134534;27;19915;-41
2023/06/28 12:34:24;;;;;;;;;;;19.20;99.90;;;;;;5134035;27;19911;-42
2023/06/28 12:36:57;;;;;;;;;;;19.20;99.90;;;;;;5136044;27;19924;-43
2023/06/28 12:39:23;;;;;;;;;;;19.30;99.90;;;;;;5135952;27;19919;-42
2023/06/28 12:42:05;;;;;;;;;;;19.30;99.90;;;;;;5126852;27;19930;-43
2023/06/28 12:44:32;;;;;;;;;;;19.30;99.90;;;;;;5127681;27;20369;-43
2023/06/28 12:46:57;;;;;;;;;;;19.40;99.90;;;;;;5130868;27;19922;-46
2023/06/28 12:49:34;;;;;;;;;;;19.30;99.90;;;;;;5136291;27;19915;-42
2023/06/28 12:51:59;;;;;;;;;;;19.30;99.90;;;;;;5155125;27;20518;-42
2023/06/28 12:54:24;;;;;;;;;;;19.30;99.90;;;;;;5135084;27;20153;-42
2023/06/28 12:56:50;;;;;;;;;;;19.20;99.90;;;;;;5129361;27;19919;-43
2023/06/28 12:59:15;;;;;;;;;;;19.20;99.90;;;;;;5134930;27;19912;-41
2023/06/28 13:01:41;;;;;;;;;;;19.20;99.90;;;;;;5125418;27;19919;-41
2023/06/28 13:04:06;;;;;;;;;;;19.30;99.90;;;;;;5117283;27;19961;-41
2023/06/28 13:06:32;;;;;;;;;;;19.30;99.90;;;;;;5121737;27;19919;-45
2023/06/28 13:08:57;;;;;;;;;;;19.30;99.90;;;;;;5127405;27;20754;-44
2023/06/28 13:11:23;;;;;;;;;;;19.30;99.90;;;;;;5138224;27;19957;-41
2023/06/28 13:13:48;;;;;;;;;;;19.30;99.90;;;;;;5137964;27;19985;-42
2023/06/28 13:16:14;;;;;;;;;;;19.40;99.90;;;;;;5129829;27;19927;-44
2023/06/28 13:18:39;;;;;;;;;;;19.30;99.90;;;;;;5130721;27;19957;-43
2023/06/28 13:21:06;;;;;;;;;;;19.30;99.90;;;;;;5133452;27;19915;-42
2023/06/28 13:23:31;;;;;;;;;;;19.30;99.90;;;;;;5130316;27;20350;-42
2023/06/28 13:25:58;;;;;;;;;;;19.30;99.90;;;;;;5126947;27;19964;-41
2023/06/28 13:28:23;;;;;;;;;;;19.40;99.90;;;;;;5115929;27;20008;-41
2023/06/28 13:30:49;;;;;;;;;;;19.40;99.90;;;;;;5131315;27;19952;-41
2023/06/28 13:33:14;;;;;;;;;;;19.50;99.90;;;;;;5132783;27;20277;-42
2023/06/28 13:35:40;;;;;;;;;;;19.60;99.90;;;;;;5135365;27;19920;-43
2023/06/28 13:38:05;;;;;;;;;;;19.60;99.90;;;;;;5134467;27;20601;-43
2023/06/28 13:40:31;;;;;;;;;;;19.60;99.90;;;;;;5135981;27;19907;-41
2023/06/28 13:42:56;;;;;;;;;;;19.60;99.90;;;;;;5135296;27;19912;-45
2023/06/28 13:45:22;;;;;;;;;;;19.70;99.90;;;;;;5130399;27;20503;-43
2023/06/28 13:47:48;;;;;;;;;;;19.70;99.90;;;;;;5134998;27;20338;-43
2023/06/28 13:50:14;;;;;;;;;;;19.70;99.90;;;;;;5133560;27;19907;-44
2023/06/28 13:52:39;;;;;;;;;;;19.70;99.90;;;;;;5132699;27;19915;-44
2023/06/28 13:55:05;;;;;;;;;;;19.70;99.90;;;;;;5119589;27;19915;-41
2023/06/28 13:57:31;;;;;;;;;;;19.60;99.90;;;;;;5114840;28;19962;-44
2023/06/28 13:59:57;;;;;;;;;;;19.60;99.90;;;;;;5114467;28;19908;-42
2023/06/28 14:02:22;;;;;;;;;;;19.60;99.90;;;;;;5114867;28;19908;-43
2023/06/28 14:04:49;;;;;;;;;;;19.70;99.90;;;;;;5119524;27;19926;-45
2023/06/28 14:07:14;;;;;;;;;;;19.70;99.90;;;;;;5134285;27;19907;-43
2023/06/28 14:09:40;;;;;;;;;;;19.80;99.90;;;;;;5133774;27;19949;-44
2023/06/28 14:12:06;;;;;;;;;;;19.80;99.90;;;;;;5134021;27;19956;-43